Time,TemperatureF,DewpointF,PressureIn,WindDirection,WindDirectionDegrees,WindSpeedMPH,WindSpeedGustMPH,Humidity,HourlyPrecipIn,Conditions,Clouds,dailyrainin,SoftwareType,DateUTC
2013-05-05 00:01:00,44.0,25.0,-100.00,ESE,103,13.0,19.0,45,0.00,,,-99.99,,2013-05-05 00:01:00,
2013-05-05 00:11:00,44.0,26.0,-100.00,East,93,14.0,19.0,48,0.00,,,-99.99,,2013-05-05 00:11:00,
2013-05-05 00:21:00,43.0,26.0,-100.00,East,80,19.0,26.0,50,0.00,,,-99.99,,2013-05-05 00:21:00,
2013-05-05 00:32:00,43.0,25.0,-100.00,East,86,16.0,22.0,49,0.00,,,-99.99,,2013-05-05 00:32:00,
2013-05-05 00:42:00,43.0,26.0,-100.00,East,83,16.0,21.0,51,0.00,,,-99.99,,2013-05-05 00:42:00,
2013-05-05 00:51:00,43.0,26.0,-100.00,East,80,17.0,22.0,52,0.00,,,-99.99,,2013-05-05 00:51:00,
2013-05-05 01:01:00,43.0,26.0,-100.00,East,82,16.0,21.0,52,0.00,,,-99.99,,2013-05-05 01:01:00,
2013-05-05 01:11:00,42.0,26.0,-100.00,East,85,17.0,21.0,54,0.00,,,-99.99,,2013-05-05 01:11:00,
2013-05-05 01:21:00,42.0,26.0,-100.00,East,85,16.0,21.0,54,0.00,,,-99.99,,2013-05-05 01:21:00,
2013-05-05 01:32:00,42.0,26.0,-100.00,East,86,16.0,22.0,53,0.00,,,-99.99,,2013-05-05 01:32:00,
2013-05-05 01:42:00,41.0,26.0,-100.00,East,86,16.0,22.0,54,0.00,,,-99.99,,2013-05-05 01:42:00,
2013-05-05 01:52:00,41.0,26.0,-100.00,East,86,16.0,20.0,55,0.00,,,-99.99,,2013-05-05 01:52:00,
2013-05-05 02:02:00,40.0,26.0,-100.00,East,86,14.0,21.0,56,0.00,,,-99.99,,2013-05-05 02:02:00,
2013-05-05 02:11:00,40.0,26.0,-100.00,East,85,16.0,21.0,57,0.00,,,-99.99,,2013-05-05 02:11:00,
2013-05-05 02:21:00,40.0,26.0,-100.00,East,85,13.0,17.0,59,0.00,,,-99.99,,2013-05-05 02:21:00,
2013-05-05 02:31:00,39.0,27.0,-100.00,East,85,12.0,16.0,60,0.00,,,-99.99,,2013-05-05 02:31:00,
2013-05-05 02:42:00,39.0,26.0,-100.00,East,85,12.0,16.0,60,0.00,,,-99.99,,2013-05-05 02:42:00,
2013-05-05 02:52:00,38.0,26.0,-100.00,East,85,12.0,15.0,60,0.00,,,-99.99,,2013-05-05 02:52:00,
2013-05-05 03:01:00,38.0,25.0,-100.00,East,85,11.0,14.0,59,0.00,,,-99.99,,2013-05-05 03:01:00,
2013-05-05 03:11:00,38.0,25.0,-100.00,East,85,11.0,14.0,60,0.00,,,-99.99,,2013-05-05 03:11:00,
2013-05-05 03:21:00,38.0,25.0,-100.00,East,86,11.0,16.0,60,0.00,,,-99.99,,2013-05-05 03:21:00,
2013-05-05 03:33:00,38.0,25.0,-100.00,East,86,11.0,14.0,60,0.00,,,-99.99,,2013-05-05 03:33:00,
2013-05-05 03:42:00,37.0,25.0,-100.00,East,92,10.0,14.0,60,0.00,,,-99.99,,2013-05-05 03:42:00,
2013-05-05 03:53:00,37.0,25.0,-100.00,East,95,9.0,12.0,59,0.00,,,-99.99,,2013-05-05 03:53:00,
2013-05-05 04:02:00,37.0,24.0,-100.00,East,95,8.0,11.0,59,0.00,,,-99.99,,2013-05-05 04:02:00,
2013-05-05 04:12:00,37.0,24.0,-100.00,East,99,7.0,10.0,61,0.00,,,-99.99,,2013-05-05 04:12:00,
2013-05-05 04:22:00,38.0,24.0,-100.00,SE,126,4.0,7.0,58,0.00,,,-99.99,,2013-05-05 04:22:00,
2013-05-05 04:32:00,36.0,25.0,-100.00,South,189,4.0,7.0,65,0.00,,,-99.99,,2013-05-05 04:32:00,
2013-05-05 04:43:00,36.0,26.0,-100.00,South,189,4.0,6.0,65,0.00,,,-99.99,,2013-05-05 04:43:00,
2013-05-05 04:52:00,37.0,25.0,-100.00,SSE,165,4.0,6.0,62,0.00,,,-99.99,,2013-05-05 04:52:00,
2013-05-05 05:02:00,37.0,25.0,-100.00,SSE,151,4.0,7.0,60,0.00,,,-99.99,,2013-05-05 05:02:00,
2013-05-05 05:12:00,37.0,25.0,-100.00,SE,145,3.0,7.0,61,0.00,,,-99.99,,2013-05-05 05:12:00,
2013-05-05 05:21:00,36.0,24.0,-100.00,SE,143,6.0,9.0,61,0.00,,,-99.99,,2013-05-05 05:21:00,
2013-05-05 05:31:00,35.0,25.0,-100.00,SE,127,4.0,9.0,64,0.00,,,-99.99,,2013-05-05 05:31:00,
2013-05-05 05:42:00,34.0,24.0,-100.00,ESE,117,4.0,7.0,67,0.00,,,-99.99,,2013-05-05 05:42:00,
2013-05-05 05:51:00,35.0,24.0,-100.00,ESE,117,6.0,11.0,64,0.00,,,-99.99,,2013-05-05 05:51:00,
2013-05-05 06:01:00,35.0,24.0,-100.00,ESE,123,4.0,7.0,63,0.00,,,-99.99,,2013-05-05 06:01:00,
2013-05-05 06:12:00,35.0,24.0,-100.00,SE,124,4.0,7.0,63,0.00,,,-99.99,,2013-05-05 06:12:00,
2013-05-05 06:21:00,35.0,24.0,-100.00,SE,138,4.0,7.0,64,0.00,,,-99.99,,2013-05-05 06:21:00,
2013-05-05 06:32:00,36.0,25.0,-100.00,SE,136,3.0,6.0,63,0.00,,,-99.99,,2013-05-05 06:32:00,
2013-05-05 06:42:00,34.0,25.0,-100.00,East,100,2.0,4.0,67,0.00,,,-99.99,,2013-05-05 06:42:00,
2013-05-05 06:51:00,34.0,24.0,-100.00,East,97,2.0,6.0,67,0.00,,,-99.99,,2013-05-05 06:51:00,
2013-05-05 07:01:00,34.0,24.0,-100.00,ESE,106,3.0,6.0,66,0.00,,,-99.99,,2013-05-05 07:01:00,
2013-05-05 07:11:00,33.0,24.0,-100.00,East,100,4.0,6.0,67,0.00,,,-99.99,,2013-05-05 07:11:00,
2013-05-05 07:21:00,33.0,22.0,-100.00,East,96,6.0,12.0,62,0.00,,,-99.99,,2013-05-05 07:21:00,
2013-05-05 07:32:00,34.0,22.0,-100.00,ESE,106,9.0,14.0,62,0.00,,,-99.99,,2013-05-05 07:32:00,
2013-05-05 07:42:00,34.0,22.0,-100.00,ESE,109,11.0,14.0,61,0.00,,,-99.99,,2013-05-05 07:42:00,
2013-05-05 07:52:00,34.0,22.0,-100.00,ESE,110,13.0,17.0,60,0.00,,,-99.99,,2013-05-05 07:52:00,
2013-05-05 08:02:00,35.0,22.0,-100.00,ESE,109,13.0,21.0,60,0.00,,,-99.99,,2013-05-05 08:02:00,
2013-05-05 08:11:00,35.0,22.0,-100.00,ESE,113,13.0,19.0,58,0.00,,,-99.99,,2013-05-05 08:11:00,
2013-05-05 08:21:00,35.0,21.0,-100.00,ESE,117,12.0,19.0,57,0.00,,,-99.99,,2013-05-05 08:21:00,
2013-05-05 08:31:00,35.0,21.0,-100.00,ESE,117,10.0,15.0,56,0.00,,,-99.99,,2013-05-05 08:31:00,
2013-05-05 08:42:00,35.0,21.0,-100.00,ESE,123,9.0,16.0,56,0.00,,,-99.99,,2013-05-05 08:42:00,
2013-05-05 08:53:00,35.0,19.0,-100.00,SE,128,10.0,20.0,53,0.00,,,-99.99,,2013-05-05 08:53:00,
2013-05-05 09:01:00,35.0,19.0,-100.00,SE,130,11.0,20.0,52,0.00,,,-99.99,,2013-05-05 09:01:00,
2013-05-05 09:11:00,34.0,18.0,-100.00,SE,124,11.0,17.0,51,0.00,,,-99.99,,2013-05-05 09:11:00,
2013-05-05 09:21:00,34.0,18.0,-100.00,ESE,123,12.0,17.0,52,0.00,,,-99.99,,2013-05-05 09:21:00,
2013-05-05 09:32:00,33.0,18.0,-100.00,SE,126,11.0,15.0,53,0.00,,,-99.99,,2013-05-05 09:32:00,
2013-05-05 09:42:00,33.0,18.0,-100.00,SE,127,11.0,16.0,52,0.00,,,-99.99,,2013-05-05 09:42:00,
2013-05-05 09:52:00,33.0,18.0,-100.00,SE,128,11.0,17.0,52,0.00,,,-99.99,,2013-05-05 09:52:00,
2013-05-05 10:02:00,33.0,17.0,-100.00,SE,126,10.0,13.0,52,0.00,,,-99.99,,2013-05-05 10:02:00,
2013-05-05 10:12:00,33.0,17.0,-100.00,SE,128,11.0,21.0,53,0.00,,,-99.99,,2013-05-05 10:12:00,
2013-05-05 10:22:00,32.0,18.0,-100.00,SE,136,12.0,17.0,54,0.00,,,-99.99,,2013-05-05 10:22:00,
2013-05-05 10:32:00,32.0,17.0,-100.00,SE,133,12.0,20.0,55,0.00,,,-99.99,,2013-05-05 10:32:00,
2013-05-05 10:42:00,31.0,17.0,-100.00,SE,126,9.0,17.0,56,0.00,,,-99.99,,2013-05-05 10:42:00,
2013-05-05 10:52:00,31.0,17.0,-100.00,SE,126,9.0,13.0,56,0.00,,,-99.99,,2013-05-05 10:52:00,
2013-05-05 11:01:00,31.0,17.0,-100.00,SE,127,7.0,12.0,56,0.00,,,-99.99,,2013-05-05 11:01:00,
2013-05-05 11:12:00,30.0,17.0,-100.00,SE,127,7.0,13.0,57,0.00,,,-99.99,,2013-05-05 11:12:00,
2013-05-05 11:21:00,30.0,17.0,-100.00,SE,131,7.0,12.0,58,0.00,,,-99.99,,2013-05-05 11:21:00,
2013-05-05 11:32:00,29.0,17.0,-100.00,ESE,119,6.0,9.0,60,0.00,,,-99.99,,2013-05-05 11:32:00,
2013-05-05 11:42:00,29.0,17.0,-100.00,ESE,103,6.0,7.0,61,0.00,,,-99.99,,2013-05-05 11:42:00,
2013-05-05 11:51:00,30.0,17.0,-100.00,ESE,119,4.0,9.0,60,0.00,,,-99.99,,2013-05-05 11:51:00,
2013-05-05 12:02:00,30.0,17.0,-100.00,ESE,123,5.0,9.0,59,0.00,,,-99.99,,2013-05-05 12:02:00,
2013-05-05 12:11:00,30.0,17.0,-100.00,SE,124,5.0,9.0,60,0.00,,,-99.99,,2013-05-05 12:11:00,
2013-05-05 12:21:00,29.0,18.0,-100.00,ESE,123,6.0,10.0,62,0.00,,,-99.99,,2013-05-05 12:21:00,
2013-05-05 12:32:00,29.0,18.0,-100.00,ESE,119,8.0,13.0,62,0.00,,,-99.99,,2013-05-05 12:32:00,
2013-05-05 12:42:00,30.0,18.0,-100.00,ESE,121,8.0,12.0,61,0.00,,,-99.99,,2013-05-05 12:42:00,
2013-05-05 12:52:00,30.0,18.0,-100.00,ESE,121,9.0,16.0,61,0.00,,,-99.99,,2013-05-05 12:52:00,
2013-05-05 13:01:00,31.0,18.0,-100.00,SE,126,9.0,15.0,59,0.00,,,-99.99,,2013-05-05 13:01:00,
2013-05-05 13:11:00,31.0,18.0,-100.00,SE,131,11.0,19.0,58,0.00,,,-99.99,,2013-05-05 13:11:00,
2013-05-05 13:21:00,31.0,18.0,-100.00,SE,130,9.0,17.0,59,0.00,,,-99.99,,2013-05-05 13:21:00,
2013-05-05 13:32:00,32.0,18.0,-100.00,SE,126,7.0,17.0,58,0.00,,,-99.99,,2013-05-05 13:32:00,
2013-05-05 13:42:00,33.0,18.0,-100.00,SE,131,9.0,16.0,54,0.00,,,-99.99,,2013-05-05 13:42:00,
2013-05-05 13:52:00,34.0,18.0,-100.00,SE,137,12.0,17.0,52,0.00,,,-99.99,,2013-05-05 13:52:00,
2013-05-05 14:02:00,35.0,18.0,-100.00,SE,133,11.0,18.0,50,0.00,,,-99.99,,2013-05-05 14:02:00,
2013-05-05 14:21:00,35.0,18.0,-100.00,SE,134,11.0,18.0,50,0.00,,,-99.99,,2013-05-05 14:21:00,
2013-05-05 14:31:00,36.0,18.0,-100.00,SE,127,9.0,16.0,48,0.00,,,-99.99,,2013-05-05 14:31:00,
2013-05-05 14:42:00,37.0,18.0,-100.00,SE,127,9.0,16.0,46,0.00,,,-99.99,,2013-05-05 14:42:00,
2013-05-05 14:51:00,38.0,18.0,-100.00,SE,128,10.0,18.0,45,0.00,,,-99.99,,2013-05-05 14:51:00,
2013-05-05 15:02:00,37.0,18.0,-100.00,SE,124,11.0,19.0,46,0.00,,,-99.99,,2013-05-05 15:02:00,
2013-05-05 15:21:00,39.0,18.0,-100.00,SE,136,15.0,24.0,43,0.00,,,-99.99,,2013-05-05 15:21:00,
2013-05-05 15:33:00,40.0,20.0,-100.00,SE,127,14.0,27.0,43,0.00,,,-99.99,,2013-05-05 15:33:00,
2013-05-05 15:43:00,41.0,18.0,-100.00,SE,126,14.0,26.0,39,0.00,,,-99.99,,2013-05-05 15:43:00,
2013-05-05 15:53:00,41.0,18.0,-100.00,SE,127,14.0,27.0,38,0.00,,,-99.99,,2013-05-05 15:53:00,
2013-05-05 16:03:00,42.0,18.0,-100.00,SE,133,14.0,21.0,36,0.00,,,-99.99,,2013-05-05 16:03:00,
2013-05-05 16:12:00,42.0,18.0,-100.00,SE,141,16.0,25.0,38,0.00,,,-99.99,,2013-05-05 16:12:00,
2013-05-05 16:22:00,43.0,19.0,-100.00,SE,137,16.0,24.0,38,0.00,,,-99.99,,2013-05-05 16:22:00,
2013-05-05 16:32:00,43.0,19.0,-100.00,SE,130,15.0,26.0,38,0.00,,,-99.99,,2013-05-05 16:32:00,
2013-05-05 16:42:00,43.0,20.0,-100.00,SE,130,15.0,28.0,39,0.00,,,-99.99,,2013-05-05 16:42:00,
2013-05-05 16:52:00,43.0,20.0,-100.00,SE,133,17.0,29.0,39,0.00,,,-99.99,,2013-05-05 16:52:00,
2013-05-05 17:02:00,42.0,18.0,-100.00,SE,127,16.0,25.0,38,0.00,,,-99.99,,2013-05-05 17:02:00,
2013-05-05 17:12:00,42.0,19.0,-100.00,SE,124,16.0,25.0,38,0.00,,,-99.99,,2013-05-05 17:12:00,
2013-05-05 17:23:00,42.0,19.0,-100.00,SE,131,17.0,28.0,38,0.00,,,-99.99,,2013-05-05 17:23:00,
2013-05-05 17:32:00,42.0,19.0,-100.00,SE,124,14.0,21.0,38,0.00,,,-99.99,,2013-05-05 17:32:00,
2013-05-05 17:42:00,43.0,20.0,-100.00,ESE,113,15.0,24.0,39,0.00,,,-99.99,,2013-05-05 17:42:00,
2013-05-05 17:52:00,43.0,19.0,-100.00,ESE,112,17.0,24.0,39,0.00,,,-99.99,,2013-05-05 17:52:00,
2013-05-05 18:01:00,43.0,20.0,-100.00,ESE,110,17.0,24.0,39,0.00,,,-99.99,,2013-05-05 18:01:00,
2013-05-05 18:12:00,44.0,20.0,-100.00,ESE,112,17.0,26.0,37,0.00,,,-99.99,,2013-05-05 18:12:00,
2013-05-05 18:21:00,44.0,19.0,-100.00,ESE,114,19.0,29.0,36,0.00,,,-99.99,,2013-05-05 18:21:00,
2013-05-05 18:32:00,44.0,20.0,-100.00,ESE,107,21.0,30.0,38,0.00,,,-99.99,,2013-05-05 18:32:00,
2013-05-05 18:42:00,46.0,22.0,-100.00,ESE,113,22.0,30.0,39,0.00,,,-99.99,,2013-05-05 18:42:00,
2013-05-05 18:51:00,45.0,22.0,-100.00,ESE,116,20.0,30.0,39,0.00,,,-99.99,,2013-05-05 18:51:00,
2013-05-05 19:01:00,44.0,22.0,-100.00,ESE,116,17.0,26.0,41,0.00,,,-99.99,,2013-05-05 19:01:00,
2013-05-05 19:11:00,44.0,22.0,-100.00,ESE,112,21.0,29.0,41,0.00,,,-99.99,,2013-05-05 19:11:00,
2013-05-05 19:21:00,45.0,22.0,-100.00,ESE,109,17.0,28.0,41,0.00,,,-99.99,,2013-05-05 19:21:00,
2013-05-05 19:32:00,45.0,23.0,-100.00,ESE,116,16.0,22.0,41,0.00,,,-99.99,,2013-05-05 19:32:00,
2013-05-05 19:42:00,47.0,23.0,-100.00,ESE,120,15.0,21.0,39,0.00,,,-99.99,,2013-05-05 19:42:00,
2013-05-05 19:52:00,47.0,23.0,-100.00,ESE,120,16.0,26.0,37,0.00,,,-99.99,,2013-05-05 19:52:00,
2013-05-05 20:01:00,48.0,23.0,-100.00,ESE,110,17.0,26.0,36,0.00,,,-99.99,,2013-05-05 20:01:00,
2013-05-05 20:11:00,48.0,24.0,-100.00,ESE,119,16.0,26.0,37,0.00,,,-99.99,,2013-05-05 20:11:00,
2013-05-05 20:21:00,51.0,24.0,-100.00,SE,127,15.0,25.0,34,0.00,,,-99.99,,2013-05-05 20:21:00,
2013-05-05 20:31:00,51.0,25.0,-100.00,SE,124,12.0,23.0,36,0.00,,,-99.99,,2013-05-05 20:31:00,
2013-05-05 20:41:00,50.0,24.0,-100.00,SE,130,16.0,28.0,35,0.00,,,-99.99,,2013-05-05 20:41:00,
2013-05-05 20:52:00,51.0,24.0,-100.00,SE,127,15.0,29.0,35,0.00,,,-99.99,,2013-05-05 20:52:00,
2013-05-05 21:02:00,50.0,24.0,-100.00,SE,126,14.0,25.0,36,0.00,,,-99.99,,2013-05-05 21:02:00,
2013-05-05 21:11:00,52.0,24.0,-100.00,SE,126,15.0,26.0,33,0.00,,,-99.99,,2013-05-05 21:11:00,
2013-05-05 21:21:00,50.0,24.0,-100.00,ESE,123,15.0,27.0,35,0.00,,,-99.99,,2013-05-05 21:21:00,
2013-05-05 21:33:00,50.0,25.0,-100.00,SE,136,17.0,26.0,37,0.00,,,-99.99,,2013-05-05 21:33:00,
2013-05-05 21:42:00,50.0,24.0,-100.00,SE,134,16.0,26.0,36,0.00,,,-99.99,,2013-05-05 21:42:00,
2013-05-05 21:52:00,49.0,26.0,-100.00,SE,130,15.0,26.0,39,0.00,,,-99.99,,2013-05-05 21:52:00,
2013-05-05 22:02:00,49.0,25.0,-100.00,SE,131,15.0,27.0,39,0.00,,,-99.99,,2013-05-05 22:02:00,
2013-05-05 22:12:00,49.0,25.0,-100.00,SE,134,16.0,26.0,40,0.00,,,-99.99,,2013-05-05 22:12:00,
2013-05-05 22:22:00,48.0,26.0,-100.00,SE,126,12.0,21.0,42,0.00,,,-99.99,,2013-05-05 22:22:00,
2013-05-05 22:33:00,47.0,26.0,-100.00,SE,131,13.0,24.0,43,0.00,,,-99.99,,2013-05-05 22:33:00,
2013-05-05 22:42:00,47.0,26.0,-100.00,SE,131,14.0,22.0,45,0.00,,,-99.99,,2013-05-05 22:42:00,
2013-05-05 22:52:00,47.0,27.0,-100.00,SE,131,14.0,26.0,45,0.00,,,-99.99,,2013-05-05 22:52:00,
2013-05-05 23:02:00,47.0,27.0,-100.00,SE,136,19.0,29.0,46,0.00,,,-99.99,,2013-05-05 23:02:00,
2013-05-05 23:11:00,47.0,27.0,-100.00,SE,133,17.0,31.0,47,0.00,,,-99.99,,2013-05-05 23:11:00,
2013-05-05 23:21:00,46.0,28.0,-100.00,SE,131,16.0,30.0,49,0.00,,,-99.99,,2013-05-05 23:21:00,
2013-05-05 23:32:00,47.0,29.0,-100.00,SE,128,11.0,22.0,49,0.00,,,-99.99,,2013-05-05 23:32:00,
2013-05-05 23:52:00,47.0,29.0,-100.00,SSE,147,11.0,16.0,49,0.00,,,-99.99,,2013-05-05 23:52:00,